createdAt,value
2024-03-02T00:01:32.222Z,5.06
2024-03-02T00:04:01.798Z,5.06
2024-03-02T00:06:39.044Z,5.04
2024-03-02T00:09:21.696Z,5.02
2024-03-02T00:11:54.161Z,5.02
2024-03-02T00:14:25.647Z,5.03
2024-03-02T00:21:58.712Z,5.08
2024-03-02T00:24:41.454Z,5.05
2024-03-02T00:27:16.577Z,5.05
2024-03-02T00:29:47.193Z,5.06
2024-03-02T00:32:19.397Z,5.05
2024-03-02T00:34:53.550Z,5.04
2024-03-02T00:37:31.459Z,5.04
2024-03-02T00:46:18.192Z,4.98
2024-03-02T00:53:43.882Z,4.91
2024-03-02T00:56:17.331Z,4.87
2024-03-02T00:59:07.903Z,4.84
2024-03-02T01:01:36.791Z,4.79
2024-03-02T01:04:12.926Z,4.74
2024-03-02T01:07:09.905Z,4.73
2024-03-02T01:09:42.647Z,4.72
2024-03-02T01:12:16.536Z,4.70
2024-03-02T01:14:50.549Z,4.69
2024-03-02T01:17:41.039Z,4.66
2024-03-02T01:20:12.976Z,4.64
2024-03-02T01:22:51.413Z,4.62
2024-03-02T01:25:28.317Z,4.61
2024-03-02T01:28:16.013Z,4.59
2024-03-02T01:30:51.060Z,4.59
2024-03-02T01:33:31.941Z,4.59
2024-03-02T01:45:01.587Z,4.49
2024-03-02T01:47:52.944Z,4.46
2024-03-02T01:50:57.666Z,4.45
2024-03-02T01:53:40.026Z,4.42
2024-03-02T02:00:17.339Z,4.44
2024-03-02T02:23:36.840Z,4.52
2024-03-02T02:30:42.056Z,4.49
2024-03-02T02:33:13.282Z,4.46
2024-03-02T02:35:53.603Z,4.43
2024-03-02T02:43:07.808Z,4.32
2024-03-02T02:55:19.051Z,4.22
2024-03-02T03:12:39.639Z,4.06
2024-03-02T03:15:10.872Z,4.02
2024-03-02T03:41:44.418Z,3.91
2024-03-02T03:44:37.585Z,3.89
2024-03-02T03:47:40.039Z,3.90
2024-03-02T03:50:17.482Z,3.90
2024-03-02T04:03:07.618Z,3.90
2024-03-02T04:10:23.838Z,3.88
2024-03-02T04:13:37.701Z,3.85
2024-03-02T04:20:44.913Z,3.83
2024-03-02T04:23:56.124Z,3.83
2024-03-02T04:26:55.106Z,3.81
2024-03-02T04:30:05.271Z,3.81
2024-03-02T04:32:41.365Z,3.83
2024-03-02T04:35:25.442Z,3.83
2024-03-02T04:37:57.523Z,3.80
2024-03-02T04:41:01.371Z,3.75
2024-03-02T04:43:57.667Z,3.69
2024-03-02T04:46:35.722Z,3.63
2024-03-02T04:49:23.560Z,3.56
2024-03-02T04:51:53.028Z,3.49
2024-03-02T05:16:52.188Z,3.63
2024-03-02T05:37:45.885Z,3.78
2024-03-02T05:40:17.058Z,3.81
2024-03-02T05:42:50.572Z,3.81
2024-03-02T05:46:24.247Z,3.83
2024-03-02T05:53:11.392Z,3.85
2024-03-02T06:05:27.310Z,4.02
2024-03-02T06:18:20.680Z,4.31
2024-03-02T06:25:43.670Z,4.33
2024-03-02T06:28:24.196Z,4.26
2024-03-02T06:34:06.768Z,4.27
2024-03-02T06:40:39.033Z,4.39
2024-03-02T06:55:56.020Z,4.52
2024-03-02T07:03:06.989Z,4.52
2024-03-02T07:05:45.967Z,4.49
2024-03-02T07:09:26.941Z,4.50
2024-03-02T07:12:08.847Z,4.61
2024-03-02T07:16:00.610Z,4.63
2024-03-02T07:20:08.596Z,4.34
2024-03-02T07:23:40.429Z,4.80
2024-03-02T07:30:07.178Z,5.07
2024-03-02T07:33:37.457Z,5.23
2024-03-02T07:36:26.540Z,5.27
2024-03-02T07:39:21.128Z,5.34
2024-03-02T07:41:57.096Z,5.42
2024-03-02T07:44:34.810Z,5.45
2024-03-02T07:47:43.607Z,5.43
2024-03-02T07:50:20.535Z,5.42
2024-03-02T07:53:34.304Z,5.43
2024-03-02T07:56:17.998Z,5.47
2024-03-02T07:59:50.554Z,5.48
2024-03-02T08:22:32.416Z,6.34
2024-03-02T08:25:07.204Z,6.35
2024-03-02T08:27:43.419Z,6.34
2024-03-02T08:37:21.967Z,6.45
2024-03-02T08:40:19.534Z,6.50
2024-03-02T08:43:17.511Z,6.49
2024-03-02T08:45:51.134Z,6.50
2024-03-02T08:48:28.099Z,6.56
2024-03-02T08:51:01.629Z,6.56
2024-03-02T08:53:31.115Z,6.57
2024-03-02T08:57:01.668Z,6.64
2024-03-02T08:59:37.421Z,6.76
2024-03-02T09:02:12.476Z,6.87
2024-03-02T09:04:48.253Z,7.00
2024-03-02T09:07:28.181Z,7.12
2024-03-02T09:10:23.816Z,7.20
2024-03-02T09:13:08.324Z,7.28
2024-03-02T09:15:45.987Z,7.37
2024-03-02T09:18:23.454Z,7.48
2024-03-02T09:21:01.286Z,7.51
2024-03-02T09:24:23.531Z,7.55
2024-03-02T09:26:58.565Z,7.59
2024-03-02T09:30:20.410Z,7.67
2024-03-02T09:33:17.437Z,7.85
2024-03-02T09:37:15.410Z,7.99
2024-03-02T09:39:49.953Z,8.18
2024-03-02T09:42:27.748Z,8.31
2024-03-02T09:45:24.676Z,8.46
2024-03-02T09:48:23.607Z,8.61
2024-03-02T09:54:22.399Z,8.84
2024-03-02T09:57:27.809Z,8.97
2024-03-02T10:00:08.677Z,9.13
2024-03-02T10:02:47.018Z,9.26
2024-03-02T10:05:34.695Z,9.35
2024-03-02T10:08:09.232Z,9.40
2024-03-02T10:11:30.941Z,9.40
2024-03-02T10:15:30.454Z,9.42
2024-03-02T10:18:55.112Z,9.50
2024-03-02T10:22:05.184Z,9.53
2024-03-02T10:25:37.362Z,9.54
2024-03-02T10:28:35.803Z,9.61
2024-03-02T10:31:09.494Z,9.57
2024-03-02T10:34:05.214Z,9.43
2024-03-02T10:36:47.963Z,9.31
2024-03-02T10:47:46.037Z,9.37
2024-03-02T10:56:04.450Z,9.35
2024-03-02T10:59:44.111Z,9.33
2024-03-02T11:02:38.005Z,9.27
2024-03-02T11:05:36.653Z,9.17
2024-03-02T11:39:05.391Z,10.02
2024-03-02T11:41:54.154Z,10.01
2024-03-02T12:12:11.914Z,10.96
2024-03-02T12:18:45.532Z,11.02
2024-03-02T14:55:02.596Z,9.23
2024-03-02T14:57:53.192Z,9.13
2024-03-02T15:05:17.327Z,8.94
2024-03-02T15:09:46.317Z,8.85
2024-03-02T15:12:21.345Z,8.80
2024-03-02T15:14:55.008Z,8.75
2024-03-02T15:17:49.628Z,8.68
2024-03-02T15:20:31.717Z,8.60
2024-03-02T16:25:37.342Z,8.06
2024-03-02T16:28:15.142Z,7.99
2024-03-02T16:36:18.980Z,7.90
2024-03-02T16:39:11.421Z,7.85
2024-03-02T16:42:30.257Z,7.82
2024-03-02T16:45:03.329Z,7.78
2024-03-02T16:56:33.280Z,7.65
2024-03-02T17:21:29.474Z,7.53
2024-03-02T17:24:05.636Z,7.50
2024-03-02T17:31:06.230Z,7.47
2024-03-02T17:34:47.162Z,7.44
2024-03-02T17:38:34.485Z,7.43
2024-03-02T18:35:10.204Z,7.01
2024-03-02T19:03:05.287Z,6.43
2024-03-02T19:54:51.672Z,5.11
2024-03-02T20:02:18.473Z,4.75
2024-03-02T20:14:39.607Z,4.62
2024-03-02T20:26:56.312Z,4.52
2024-03-02T20:34:00.739Z,4.54
2024-03-02T20:37:30.768Z,4.54
2024-03-02T20:40:04.262Z,4.51
2024-03-02T20:42:47.098Z,4.47
2024-03-02T20:45:22.733Z,4.40
2024-03-02T20:54:20.678Z,4.24
2024-03-02T20:58:22.908Z,4.17
2024-03-02T21:10:40.657Z,4.04
2024-03-02T21:13:43.400Z,4.04
2024-03-02T21:22:29.674Z,4.17
2024-03-02T21:30:05.258Z,4.24
2024-03-02T21:33:30.936Z,4.23
2024-03-02T21:37:40.373Z,4.26
2024-03-02T21:41:03.839Z,4.34
2024-03-02T21:43:49.147Z,4.40
2024-03-02T21:46:28.175Z,4.44
2024-03-02T21:49:10.405Z,4.49
2024-03-02T21:51:45.812Z,4.53
2024-03-02T22:00:57.263Z,4.69
2024-03-02T22:04:05.802Z,4.67
2024-03-02T22:07:10.498Z,4.70
2024-03-02T22:09:43.940Z,4.69
2024-03-02T22:12:14.880Z,4.69
2024-03-02T22:14:47.679Z,4.70
2024-03-02T22:17:21.656Z,4.74
2024-03-02T22:19:49.440Z,4.79
2024-03-02T22:22:28.502Z,4.83
2024-03-02T22:24:58.808Z,4.86
2024-03-02T22:27:36.122Z,4.90
2024-03-02T22:30:31.470Z,4.92
2024-03-02T22:33:03.978Z,4.95
2024-03-02T22:35:35.104Z,4.94
2024-03-02T22:38:05.308Z,4.92
2024-03-02T22:40:39.687Z,4.89
2024-03-02T22:49:21.133Z,4.86
2024-03-02T22:51:48.896Z,4.82
2024-03-02T22:54:16.506Z,4.80
2024-03-02T22:56:45.224Z,4.73
2024-03-02T22:59:16.014Z,4.60
2024-03-02T23:01:45.416Z,4.51
2024-03-02T23:04:13.479Z,4.47
2024-03-02T23:06:41.436Z,4.46
2024-03-02T23:09:10.469Z,4.44
2024-03-02T23:11:38.535Z,4.39
2024-03-02T23:14:06.547Z,4.36
2024-03-02T23:16:36.084Z,4.35
2024-03-02T23:19:04.447Z,4.37
2024-03-02T23:21:34.317Z,4.39
2024-03-02T23:24:02.478Z,4.41
2024-03-02T23:26:30.427Z,4.38
2024-03-02T23:28:58.118Z,4.28
2024-03-02T23:31:25.854Z,4.23
2024-03-02T23:33:56.268Z,4.20
2024-03-02T23:36:24.116Z,4.20
2024-03-02T23:38:51.923Z,4.22
2024-03-02T23:41:20.115Z,4.23
2024-03-02T23:43:48.099Z,4.22
2024-03-02T23:46:16.028Z,4.23
2024-03-02T23:48:43.976Z,4.26
2024-03-02T23:51:12.727Z,4.30
2024-03-02T23:53:40.686Z,4.33
2024-03-02T23:56:12.650Z,4.34
2024-03-02T23:58:40.707Z,4.37
